Huvudsida
METAR-TAF:

METAR-TAF

Flygplatser :

False Pass, Alaska, USA

latitud: 54-50-51N, longitud: 163-24-37W, höjd: 6 m

Aktuellt väderrapport

Denna rapport gjordes för 51 minuter sedan, klockan 21:56 UTC
Vind 9 kt från syd/sydost
Temperatur 8°C
Fuktighet 93%
Tryck 1011 hPa
Sikt: 14.5 km
Mulet på en höjd av 1200 ft
lätt regn

METAR: PAKF 172156Z AUTO 15009KT 9SM -RA OVC012 08/07 A2984 RMK AO2 RAB17 SLP104 P0000 T00830067

Tid: 14:47 (22:47 UTC)


TAF: saknas

Aktuella väderrapporter och prognoser från 4000 flygplatser (METAR- och TAF-rapporter).

De tillgängliga stationerna syns som gula och röda prickar på kartan.

För musen över prickarna för att se namnen på stationerna.

Klicka sedan för att få väderrapporter och prognoser.

För att ändra kartan: Klicka på de gröna knapparna med ett svart kors på för att zooma in; den gröna knappen med ett streck på för att zooma ut; eller på de gröna pilarna för angränsande kartor.


METAR-TAF: